createdAt,value
2019-06-23T00:00:05.419Z,9.70
2019-06-23T00:02:32.401Z,6.92
2019-06-23T00:04:59.206Z,6.87
2019-06-23T00:07:25.897Z,8.30
2019-06-23T00:09:52.551Z,8.80
2019-06-23T00:12:19.548Z,6.97
2019-06-23T00:14:46.224Z,10.08
2019-06-23T00:17:13.091Z,6.40
2019-06-23T00:19:39.789Z,6.42
2019-06-23T00:22:06.655Z,7.28
2019-06-23T00:24:33.629Z,6.42
2019-06-23T00:27:00.376Z,7.78
2019-06-23T00:29:27.038Z,7.87
2019-06-23T00:31:55.727Z,8.33
2019-06-23T00:34:22.592Z,8.83
2019-06-23T00:36:49.465Z,6.53
2019-06-23T00:39:16.129Z,6.80
2019-06-23T00:41:42.906Z,8.45
2019-06-23T00:44:09.602Z,6.30
2019-06-23T00:46:36.354Z,7.60
2019-06-23T00:49:03.128Z,9.25
2019-06-23T00:51:30.099Z,10.65
2019-06-23T00:53:56.851Z,6.83
2019-06-23T00:56:23.641Z,7.87
2019-06-23T00:58:50.293Z,6.87
2019-06-23T01:01:29.161Z,6.62
2019-06-23T01:04:07.949Z,6.80
2019-06-23T01:06:24.636Z,6.87
2019-06-23T01:08:51.282Z,6.67
2019-06-23T01:11:18.104Z,7.03
2019-06-23T01:13:44.883Z,6.92
2019-06-23T01:16:11.657Z,7.25
2019-06-23T01:18:38.430Z,9.65
2019-06-23T01:21:05.206Z,7.15
2019-06-23T01:23:31.963Z,8.85
2019-06-23T01:25:58.635Z,8.65
2019-06-23T01:28:25.294Z,8.23
2019-06-23T01:30:52.111Z,7.15
2019-06-23T01:33:18.865Z,7.70
2019-06-23T01:35:45.748Z,7.55
2019-06-23T01:38:12.376Z,8.30
2019-06-23T01:40:39.156Z,7.37
2019-06-23T01:43:05.810Z,7.37
2019-06-23T01:45:32.713Z,7.20
2019-06-23T01:47:59.476Z,8.35
2019-06-23T01:50:26.235Z,10.53
2019-06-23T01:52:53.002Z,7.37
2019-06-23T01:55:19.672Z,7.40
2019-06-23T01:57:46.474Z,7.28
2019-06-23T02:00:14.226Z,7.70
2019-06-23T02:02:41.019Z,7.60
2019-06-23T02:05:08.622Z,7.33
2019-06-23T02:07:35.396Z,9.95
2019-06-23T02:10:07.795Z,8.85
2019-06-23T02:12:34.655Z,8.73
2019-06-23T02:15:02.032Z,9.23
2019-06-23T02:17:29.103Z,8.10
2019-06-23T02:19:57.660Z,8.58
2019-06-23T02:22:26.271Z,8.93
2019-06-23T02:24:53.019Z,8.10
2019-06-23T02:27:19.712Z,10.75
2019-06-23T02:29:46.362Z,8.43
2019-06-23T02:32:13.150Z,8.05
2019-06-23T02:34:57.915Z,8.23
2019-06-23T02:37:08.596Z,8.53
2019-06-23T02:39:35.371Z,8.83
2019-06-23T02:42:02.480Z,8.53
2019-06-23T02:44:29.329Z,9.93
2019-06-23T02:47:00.847Z,10.00
2019-06-23T02:49:29.503Z,10.78
2019-06-23T02:51:58.079Z,8.80
2019-06-23T02:54:45.018Z,9.28
2019-06-23T02:57:11.674Z,9.98
2019-06-23T02:59:38.378Z,9.85
2019-06-23T03:02:05.034Z,12.93
2019-06-23T03:04:31.815Z,12.70
2019-06-23T03:06:58.506Z,10.13
2019-06-23T03:09:25.274Z,10.43
2019-06-23T03:11:52.032Z,13.22
2019-06-23T03:14:18.700Z,10.48
2019-06-23T03:16:45.354Z,10.65
2019-06-23T03:19:12.163Z,10.93
2019-06-23T03:21:38.943Z,10.65
2019-06-23T03:24:05.745Z,12.40
2019-06-23T03:26:32.742Z,10.72
2019-06-23T03:29:01.300Z,10.58
2019-06-23T03:31:28.385Z,12.98
2019-06-23T03:33:55.556Z,13.53
2019-06-23T03:36:22.726Z,11.53
2019-06-23T03:38:49.634Z,15.65
2019-06-23T03:41:16.610Z,13.38
2019-06-23T03:43:44.163Z,14.20
2019-06-23T03:46:11.021Z,14.85
2019-06-23T03:48:37.786Z,14.65
2019-06-23T03:51:04.584Z,13.90
2019-06-23T03:53:31.327Z,13.75
2019-06-23T03:55:57.982Z,13.83
2019-06-23T03:58:24.638Z,13.90
2019-06-23T04:00:51.306Z,13.75
2019-06-23T04:03:18.075Z,14.00
2019-06-23T04:05:51.502Z,13.40
2019-06-23T04:08:13.527Z,10.93
2019-06-23T04:10:40.215Z,10.70
2019-06-23T04:13:09.115Z,9.68
2019-06-23T04:15:35.442Z,10.18
2019-06-23T04:18:02.492Z,9.95
2019-06-23T04:20:34.956Z,10.00
2019-06-23T04:23:01.813Z,9.03
2019-06-23T04:25:28.467Z,12.33
2019-06-23T04:27:55.150Z,10.98
2019-06-23T04:30:21.935Z,9.00
2019-06-23T04:32:48.656Z,7.90
2019-06-23T04:35:15.340Z,8.55
2019-06-23T04:37:42.143Z,8.15
2019-06-23T04:40:09.223Z,6.87
2019-06-23T04:42:35.983Z,7.75
2019-06-23T04:45:04.975Z,8.55
2019-06-23T04:47:31.751Z,9.35
2019-06-23T04:49:58.424Z,7.55
2019-06-23T04:52:25.084Z,9.48
2019-06-23T04:54:51.788Z,7.55
2019-06-23T04:57:19.064Z,9.00
2019-06-23T04:59:45.757Z,5.90
2019-06-23T05:02:12.426Z,8.35
2019-06-23T05:04:39.120Z,6.62
2019-06-23T05:07:05.946Z,8.78
2019-06-23T05:09:32.814Z,7.08
2019-06-23T05:11:59.599Z,5.60
2019-06-23T05:14:26.419Z,9.95
2019-06-23T05:16:53.105Z,5.50
2019-06-23T05:19:19.862Z,4.75
2019-06-23T05:21:46.673Z,4.85
2019-06-23T05:24:13.447Z,6.80
2019-06-23T05:26:40.440Z,6.62
2019-06-23T05:29:07.719Z,6.83
2019-06-23T05:31:34.390Z,4.85
2019-06-23T05:34:01.118Z,5.75
2019-06-23T05:36:39.541Z,3.72
2019-06-23T05:38:56.631Z,10.82
2019-06-23T05:41:23.327Z,5.33
2019-06-23T05:43:50.006Z,3.55
2019-06-23T05:46:16.695Z,3.92
2019-06-23T05:48:43.464Z,5.60
2019-06-23T05:51:10.137Z,4.50
2019-06-23T05:53:36.879Z,5.00
2019-06-23T05:56:03.676Z,5.03
2019-06-23T05:58:45.457Z,8.30
2019-06-23T06:01:02.153Z,5.22
2019-06-23T06:03:27.547Z,5.85
2019-06-23T06:05:54.327Z,5.78
2019-06-23T06:08:21.103Z,6.00
2019-06-23T06:10:47.814Z,6.97
2019-06-23T06:13:14.466Z,4.25
2019-06-23T06:15:41.164Z,6.35
2019-06-23T06:18:07.815Z,4.87
2019-06-23T06:20:34.583Z,4.83
2019-06-23T06:23:01.265Z,8.40
2019-06-23T06:25:27.941Z,7.60
2019-06-23T06:27:54.608Z,7.05
2019-06-23T06:30:21.386Z,8.60
2019-06-23T06:32:48.135Z,6.50
2019-06-23T06:35:15.030Z,6.72
2019-06-23T06:37:41.695Z,6.50
2019-06-23T06:40:09.087Z,8.10
2019-06-23T06:42:35.850Z,6.15
2019-06-23T06:45:03.756Z,6.65
2019-06-23T06:47:30.419Z,5.45
2019-06-23T06:49:57.316Z,7.58
2019-06-23T06:52:23.976Z,5.33
2019-06-23T06:54:50.751Z,6.00
2019-06-23T07:02:13.453Z,6.97
2019-06-23T07:04:40.243Z,10.28
2019-06-23T07:07:07.047Z,7.00
2019-06-23T07:09:33.947Z,5.33
2019-06-23T07:12:00.629Z,5.08
2019-06-23T07:14:27.424Z,6.25
2019-06-23T07:16:54.189Z,10.80
2019-06-23T07:19:20.963Z,5.78
2019-06-23T07:21:47.632Z,6.00
2019-06-23T07:24:14.302Z,5.72
2019-06-23T07:26:41.006Z,5.35
2019-06-23T07:29:07.686Z,5.25
2019-06-23T07:32:01.853Z,5.67
2019-06-23T07:34:29.036Z,5.55
2019-06-23T07:36:57.634Z,8.68
2019-06-23T07:39:24.999Z,8.88
2019-06-23T07:41:51.883Z,5.35
2019-06-23T07:52:22.652Z,7.08
2019-06-23T07:54:49.371Z,5.92
2019-06-23T07:57:16.226Z,7.10
2019-06-23T07:59:42.893Z,6.45
2019-06-23T08:02:09.563Z,8.28
2019-06-23T08:04:36.218Z,5.20
2019-06-23T08:07:03.137Z,10.48
2019-06-23T08:09:29.842Z,7.03
2019-06-23T08:11:56.515Z,5.67
2019-06-23T08:14:23.188Z,5.78
2019-06-23T08:16:49.864Z,8.03
2019-06-23T08:19:16.520Z,7.42
2019-06-23T08:21:43.186Z,6.00
2019-06-23T08:24:09.857Z,6.80
2019-06-23T08:26:36.763Z,5.42
2019-06-23T08:29:03.720Z,4.75
2019-06-23T08:31:30.468Z,6.90
2019-06-23T08:33:57.124Z,4.05
2019-06-23T08:36:23.903Z,4.53
2019-06-23T08:38:50.784Z,7.72
2019-06-23T08:41:17.561Z,3.90
2019-06-23T08:43:44.332Z,3.45
2019-06-23T08:46:11.095Z,6.40
2019-06-23T08:48:38.980Z,6.25
2019-06-23T08:51:05.741Z,5.05
2019-06-23T08:53:32.446Z,5.53
2019-06-23T08:55:59.111Z,7.25
2019-06-23T08:58:25.787Z,8.05
2019-06-23T09:00:52.585Z,7.72
2019-06-23T09:03:19.356Z,5.47
2019-06-23T09:05:46.225Z,3.77
2019-06-23T09:08:31.507Z,3.80
2019-06-23T09:10:44.760Z,6.97
2019-06-23T09:13:11.633Z,8.18
2019-06-23T09:15:38.496Z,7.00
2019-06-23T09:18:05.381Z,5.70
2019-06-23T09:20:32.261Z,5.62
2019-06-23T09:22:59.041Z,3.40
2019-06-23T09:25:25.692Z,5.67
2019-06-23T09:27:55.650Z,3.85
2019-06-23T09:30:37.680Z,6.20
2019-06-23T09:33:04.519Z,5.80
2019-06-23T09:35:31.200Z,5.58
2019-06-23T09:37:58.080Z,4.60
2019-06-23T09:40:24.773Z,4.22
2019-06-23T09:42:51.408Z,3.83
2019-06-23T09:45:18.188Z,8.13
2019-06-23T09:47:45.100Z,6.50
2019-06-23T09:50:12.080Z,6.10
2019-06-23T09:52:38.880Z,6.75
2019-06-23T09:55:06.856Z,3.98
2019-06-23T09:57:34.519Z,10.32
2019-06-23T10:00:01.492Z,5.80
2019-06-23T10:02:28.387Z,3.60
2019-06-23T10:04:55.165Z,4.72
2019-06-23T10:07:21.848Z,3.87
2019-06-23T10:09:48.525Z,3.70
2019-06-23T10:12:15.203Z,6.08
2019-06-23T10:14:42.739Z,5.58
2019-06-23T10:17:09.791Z,4.65
2019-06-23T10:19:36.470Z,5.20
2019-06-23T10:22:03.425Z,4.12
2019-06-23T10:24:30.132Z,4.10
2019-06-23T10:26:56.792Z,3.80
2019-06-23T10:29:23.579Z,4.42
2019-06-23T10:31:50.237Z,5.78
2019-06-23T10:34:16.918Z,4.05
2019-06-23T10:36:43.675Z,3.55
2019-06-23T10:39:19.804Z,5.50
2019-06-23T10:41:41.741Z,3.47
2019-06-23T10:44:07.513Z,5.85
2019-06-23T10:46:34.211Z,5.35
2019-06-23T10:49:00.892Z,2.80
2019-06-23T10:51:27.956Z,3.55
2019-06-23T10:53:54.731Z,4.47
2019-06-23T10:56:21.453Z,7.90
2019-06-23T10:58:48.133Z,5.15
2019-06-23T11:01:14.901Z,2.60
2019-06-23T11:03:41.655Z,7.83
2019-06-23T11:06:08.335Z,3.47
2019-06-23T11:08:35.112Z,7.22
2019-06-23T11:11:01.789Z,8.08
2019-06-23T11:13:28.500Z,5.12
2019-06-23T11:15:55.154Z,4.15
2019-06-23T11:18:21.812Z,3.47
2019-06-23T11:20:48.603Z,4.28
2019-06-23T11:23:15.263Z,3.72
2019-06-23T11:25:42.044Z,7.00
2019-06-23T11:28:08.810Z,5.45
2019-06-23T11:30:35.602Z,8.00
2019-06-23T11:33:02.289Z,11.45
2019-06-23T11:35:28.940Z,3.67
2019-06-23T11:37:55.730Z,9.20
2019-06-23T11:40:22.513Z,6.83
2019-06-23T11:42:49.195Z,4.62
2019-06-23T11:45:16.683Z,8.58
2019-06-23T11:47:43.444Z,4.95
2019-06-23T11:50:11.135Z,4.10
2019-06-23T11:52:37.799Z,4.67
2019-06-23T11:55:05.591Z,3.77
2019-06-23T11:57:32.368Z,4.22
2019-06-23T11:59:59.243Z,8.70
2019-06-23T12:02:25.910Z,5.58
2019-06-23T12:04:52.638Z,4.72
2019-06-23T12:07:19.923Z,4.37
2019-06-23T12:09:46.708Z,4.97
2019-06-23T12:12:13.387Z,3.77
2019-06-23T12:14:40.094Z,3.08
2019-06-23T12:17:06.817Z,4.87
2019-06-23T12:19:33.494Z,4.05
2019-06-23T12:22:00.245Z,3.25
2019-06-23T12:24:26.981Z,2.72
2019-06-23T12:26:53.758Z,2.12
2019-06-23T12:29:20.534Z,4.75
2019-06-23T12:31:47.682Z,2.92
2019-06-23T12:34:14.382Z,2.40
2019-06-23T12:36:41.051Z,3.22
2019-06-23T12:39:07.942Z,2.98
2019-06-23T12:41:34.700Z,7.72
2019-06-23T12:44:01.424Z,5.75
2019-06-23T12:46:28.099Z,9.75
2019-06-23T12:48:54.861Z,3.40
2019-06-23T12:51:21.644Z,3.08
2019-06-23T12:53:48.429Z,2.50
2019-06-23T12:56:15.131Z,3.37
2019-06-23T12:58:41.783Z,3.30
2019-06-23T13:01:08.496Z,3.17
2019-06-23T13:03:35.146Z,3.90
2019-06-23T13:06:01.820Z,2.92
2019-06-23T13:08:28.593Z,5.10
2019-06-23T13:10:55.378Z,3.12
2019-06-23T13:13:22.047Z,4.42
2019-06-23T13:15:48.735Z,4.12
2019-06-23T13:18:15.776Z,2.85
2019-06-23T13:20:42.977Z,2.35
2019-06-23T13:23:09.714Z,3.65
2019-06-23T13:25:36.433Z,2.72
2019-06-23T13:28:03.437Z,5.15
2019-06-23T13:30:30.424Z,2.60
2019-06-23T13:32:57.139Z,3.62
2019-06-23T13:35:23.908Z,9.53
2019-06-23T13:37:50.670Z,5.50
2019-06-23T13:40:17.635Z,5.47
2019-06-23T13:42:44.283Z,2.50
2019-06-23T13:45:11.474Z,4.03
2019-06-23T13:47:38.432Z,2.77
2019-06-23T13:50:05.908Z,3.70
2019-06-23T13:52:32.568Z,2.77
2019-06-23T13:54:59.440Z,2.65
2019-06-23T13:57:26.299Z,3.27
2019-06-23T13:59:54.871Z,3.40
2019-06-23T14:02:21.566Z,4.55
2019-06-23T14:04:48.315Z,2.12
2019-06-23T14:07:15.035Z,4.15
2019-06-23T14:09:41.798Z,2.65
2019-06-23T14:12:08.579Z,2.35
2019-06-23T14:14:35.240Z,4.30
2019-06-23T14:17:01.960Z,1.87
2019-06-23T14:19:28.597Z,3.05
2019-06-23T14:21:55.384Z,4.10
2019-06-23T14:24:22.130Z,3.85
2019-06-23T14:26:48.811Z,5.80
2019-06-23T14:29:15.460Z,4.70
2019-06-23T14:31:42.158Z,6.80
2019-06-23T14:34:08.811Z,4.50
2019-06-23T14:36:35.608Z,4.78
2019-06-23T14:39:05.370Z,2.65
2019-06-23T14:41:32.140Z,2.75
2019-06-23T14:43:58.800Z,5.95
2019-06-23T14:46:25.584Z,6.00
2019-06-23T14:48:52.337Z,2.50
2019-06-23T14:51:19.116Z,2.85
2019-06-23T14:53:45.811Z,4.83
2019-06-23T14:56:12.514Z,4.92
2019-06-23T14:58:39.165Z,4.45
2019-06-23T15:01:05.847Z,4.67
2019-06-23T15:03:32.788Z,7.03
2019-06-23T15:05:59.569Z,8.25
2019-06-23T15:08:26.258Z,30.50
2019-06-23T15:10:53.062Z,4.70
2019-06-23T15:13:19.812Z,8.98
2019-06-23T15:15:46.688Z,4.20
2019-06-23T15:18:13.355Z,4.53
2019-06-23T15:20:43.346Z,6.30
2019-06-23T15:23:08.632Z,4.83
2019-06-23T15:25:35.435Z,5.15
2019-06-23T15:28:02.438Z,3.37
2019-06-23T15:30:29.122Z,6.70
2019-06-23T15:32:55.783Z,7.17
2019-06-23T15:35:22.459Z,7.22
2019-06-23T15:37:49.159Z,3.25
2019-06-23T15:40:18.045Z,4.08
2019-06-23T15:42:44.822Z,5.17
2019-06-23T15:45:11.908Z,4.72
2019-06-23T15:47:39.723Z,4.92
2019-06-23T15:50:07.982Z,6.87
2019-06-23T15:52:35.312Z,3.62
2019-06-23T15:55:06.709Z,6.83
2019-06-23T15:57:34.009Z,3.52
2019-06-23T16:00:04.117Z,3.40
2019-06-23T16:02:33.325Z,4.60
2019-06-23T16:05:00.268Z,5.12
2019-06-23T16:07:27.863Z,3.05
2019-06-23T16:09:54.919Z,3.27
2019-06-23T16:12:22.365Z,5.15
2019-06-23T16:14:51.417Z,2.35
2019-06-23T16:17:18.601Z,4.87
2019-06-23T16:19:45.712Z,3.85
2019-06-23T16:22:12.723Z,6.67
2019-06-23T16:24:40.062Z,3.55
2019-06-23T16:27:07.255Z,5.40
2019-06-23T16:29:34.932Z,6.17
2019-06-23T16:32:01.752Z,6.72
2019-06-23T16:34:29.113Z,4.15
2019-06-23T16:36:56.209Z,6.55
2019-06-23T16:39:23.588Z,4.83
2019-06-23T16:41:51.197Z,3.33
2019-06-23T16:44:18.660Z,2.92
2019-06-23T16:46:45.730Z,2.52
2019-06-23T16:49:12.731Z,5.80
2019-06-23T16:51:40.402Z,4.55
2019-06-23T16:54:08.475Z,3.33
2019-06-23T16:56:35.765Z,3.22
2019-06-23T16:59:02.628Z,3.58
2019-06-23T17:01:29.634Z,4.47
2019-06-23T17:03:56.766Z,5.50
2019-06-23T17:06:23.998Z,4.85
2019-06-23T17:08:53.703Z,9.75
2019-06-23T17:11:20.736Z,7.42
2019-06-23T17:13:48.673Z,5.05
2019-06-23T17:16:19.838Z,4.03
2019-06-23T17:18:49.300Z,3.98
2019-06-23T17:21:17.798Z,4.30
2019-06-23T17:23:46.192Z,5.70
2019-06-23T17:26:17.104Z,6.33
2019-06-23T17:28:43.765Z,4.08
2019-06-23T17:31:10.685Z,4.47
2019-06-23T17:33:40.727Z,2.67
2019-06-23T17:36:07.314Z,3.50
2019-06-23T17:38:34.344Z,5.47
2019-06-23T17:41:01.406Z,4.80
2019-06-23T17:43:29.141Z,3.50
2019-06-23T17:45:56.449Z,3.75
2019-06-23T17:48:23.612Z,5.05
2019-06-23T17:50:50.761Z,7.17
2019-06-23T17:53:20.092Z,5.42
2019-06-23T17:55:49.034Z,5.40
2019-06-23T17:58:16.602Z,6.30
2019-06-23T18:00:43.721Z,6.58
2019-06-23T18:03:16.198Z,5.53
2019-06-23T18:05:49.244Z,6.20
2019-06-23T18:08:16.665Z,3.85
2019-06-23T18:10:43.904Z,4.78
2019-06-23T18:13:21.203Z,4.53
2019-06-23T18:15:40.879Z,3.67
2019-06-23T18:18:08.463Z,3.85
2019-06-23T18:20:36.009Z,5.05
2019-06-23T18:23:03.154Z,3.98
2019-06-23T18:25:30.285Z,5.40
2019-06-23T18:27:57.874Z,5.42
2019-06-23T18:30:25.108Z,7.65
2019-06-23T18:32:52.241Z,8.40
2019-06-23T18:35:19.150Z,4.05
2019-06-23T18:37:47.214Z,4.10
2019-06-23T18:40:14.596Z,5.47
2019-06-23T18:42:41.701Z,3.25
2019-06-23T18:45:09.082Z,4.60
2019-06-23T18:47:36.790Z,8.23
2019-06-23T18:50:09.065Z,7.00
2019-06-23T18:52:36.161Z,7.47
2019-06-23T18:55:06.621Z,6.40
2019-06-23T18:57:33.860Z,5.95
2019-06-23T19:00:00.810Z,5.00
2019-06-23T19:02:27.784Z,5.25
2019-06-23T19:04:54.946Z,5.83
2019-06-23T19:07:21.931Z,7.35
2019-06-23T19:09:49.121Z,5.50
2019-06-23T19:12:16.503Z,5.35
2019-06-23T19:14:43.687Z,4.17
2019-06-23T19:17:14.172Z,4.78
2019-06-23T19:19:42.058Z,5.40
2019-06-23T19:22:10.960Z,5.08
2019-06-23T19:24:40.517Z,2.95
2019-06-23T19:27:07.989Z,3.67
2019-06-23T19:29:35.366Z,4.10
2019-06-23T19:32:02.748Z,3.22
2019-06-23T19:34:30.106Z,3.05
2019-06-23T19:36:57.009Z,3.35
2019-06-23T19:39:24.500Z,2.52
2019-06-23T19:41:52.189Z,3.25
2019-06-23T19:44:19.481Z,4.92
2019-06-23T19:46:47.188Z,3.35
2019-06-23T19:49:14.896Z,3.70
2019-06-23T19:51:42.385Z,8.08
2019-06-23T19:54:11.651Z,3.22
2019-06-23T19:56:38.994Z,3.50
2019-06-23T19:59:07.228Z,4.20
2019-06-23T20:01:34.639Z,3.02
2019-06-23T20:04:01.802Z,4.50
2019-06-23T20:06:28.881Z,5.42
2019-06-23T20:08:56.146Z,3.80
2019-06-23T20:11:23.480Z,2.52
2019-06-23T20:13:50.668Z,4.28
2019-06-23T20:16:17.973Z,6.03
2019-06-23T20:18:45.179Z,6.85
2019-06-23T20:21:12.219Z,6.17
2019-06-23T20:23:40.049Z,4.00
2019-06-23T20:26:07.074Z,5.60
2019-06-23T20:28:34.525Z,3.30
2019-06-23T20:31:03.075Z,7.10
2019-06-23T20:33:30.045Z,3.87
2019-06-23T20:35:56.991Z,2.87
2019-06-23T20:38:24.457Z,3.22
2019-06-23T20:40:51.151Z,4.17
2019-06-23T20:43:18.051Z,3.50
2019-06-23T20:45:45.673Z,3.55
2019-06-23T20:48:12.864Z,4.20
2019-06-23T20:50:40.113Z,3.20
2019-06-23T20:53:07.362Z,2.65
2019-06-23T20:55:35.514Z,3.58
2019-06-23T20:58:03.312Z,5.60
2019-06-23T21:00:30.817Z,4.40
2019-06-23T21:02:58.319Z,2.17
2019-06-23T21:05:25.694Z,5.33
2019-06-23T21:07:52.755Z,2.33
2019-06-23T21:10:20.271Z,2.87
2019-06-23T21:12:47.283Z,4.20
2019-06-23T21:15:14.887Z,7.30
2019-06-23T21:17:42.524Z,4.17
2019-06-23T21:20:13.009Z,5.85
2019-06-23T21:22:40.018Z,4.28
2019-06-23T21:25:07.730Z,2.95
2019-06-23T21:27:35.356Z,5.12
2019-06-23T21:30:09.478Z,2.65
2019-06-23T21:32:36.278Z,3.08
2019-06-23T21:35:07.033Z,3.95
2019-06-23T21:37:34.114Z,6.22
2019-06-23T21:40:01.358Z,5.72
2019-06-23T21:42:29.915Z,4.42
2019-06-23T21:45:11.054Z,6.45
2019-06-23T21:47:26.473Z,3.50
2019-06-23T21:49:53.720Z,3.00
2019-06-23T21:52:20.942Z,3.33
2019-06-23T21:54:48.297Z,5.65
2019-06-23T21:57:16.012Z,4.28
2019-06-23T21:59:43.137Z,4.62
2019-06-23T22:02:11.277Z,4.70
2019-06-23T22:04:38.038Z,5.72
2019-06-23T22:07:05.744Z,5.35
2019-06-23T22:09:33.064Z,5.03
2019-06-23T22:12:00.435Z,6.30
2019-06-23T22:14:27.705Z,6.53
2019-06-23T22:16:55.025Z,2.47
2019-06-23T22:19:22.420Z,5.40
2019-06-23T22:21:49.714Z,8.58
2019-06-23T22:24:17.268Z,3.65
2019-06-23T22:26:44.787Z,5.37
2019-06-23T22:29:11.614Z,7.08
2019-06-23T22:31:38.871Z,2.92
2019-06-23T22:34:06.559Z,6.10
2019-06-23T22:36:34.053Z,4.55
2019-06-23T22:39:01.780Z,4.58
2019-06-23T22:41:29.514Z,3.62
2019-06-23T22:43:56.460Z,2.75
2019-06-23T22:46:23.355Z,4.87
2019-06-23T22:48:50.947Z,2.58
2019-06-23T22:51:17.784Z,3.08
2019-06-23T22:53:44.864Z,4.90
2019-06-23T22:56:11.930Z,5.62
2019-06-23T22:58:38.946Z,3.65
2019-06-23T23:01:06.849Z,4.05
2019-06-23T23:03:34.369Z,5.72
2019-06-23T23:06:01.239Z,2.72
2019-06-23T23:08:28.891Z,3.67
2019-06-23T23:10:56.060Z,5.10
2019-06-23T23:13:23.572Z,6.62
2019-06-23T23:16:03.206Z,3.70
2019-06-23T23:18:19.689Z,3.47
2019-06-23T23:20:47.350Z,6.92
2019-06-23T23:23:14.165Z,3.80
2019-06-23T23:25:41.077Z,2.90
2019-06-23T23:28:08.024Z,2.83
2019-06-23T23:30:35.459Z,2.92
2019-06-23T23:33:02.903Z,4.05
2019-06-23T23:35:29.749Z,4.22
2019-06-23T23:37:57.951Z,2.62
2019-06-23T23:40:25.048Z,2.80
2019-06-23T23:42:52.010Z,5.40
2019-06-23T23:45:19.706Z,5.35
2019-06-23T23:47:47.925Z,2.85
2019-06-23T23:50:15.510Z,4.95
2019-06-23T23:52:45.009Z,3.22
2019-06-23T23:55:11.786Z,5.35
2019-06-23T23:57:39.143Z,2.37
